^^
Grace C. Lehan Memorial Weather Station Historical Data
Daily Summary for September 7, 2021 Units:  Both    English   Metric
Daily Weekly Monthly Yearly
  High: Low: Average:
Temperature: 81.3 °F /  27.4 °C 57.5 °F /  14.2 °C 68.2 °F /  20.1 °C
Dew Point: 63.7 °F /  17.6 °C 54.8 °F /  12.7 °C 58.8 °F /  14.9 °C
Humidity: 92% 48.5% 74%
Wind Speed: 3.6mph /  5.8km/h - 0.3mph /  0.5km/h
Wind Gust: 13mph /  20.9km/h - -
Wind- - West
Pressure: 29.94 in /  1013.8 hPa 29.85 in /  1010.7 hPa -
Precipitation: 0.00 in /  0 mm    
 
 
Tabular Data for September 7, 2021
Time Temperature Dew Point Pressure Wind Wind Speed Wind Gust Humidity Rainfall Rate (Hourly) solar
00:00 63.3 °F /  17.4 °C 57.7 °F /  14.3 °C 29.85in /  1010.7hPa Calm   2mph /  3.2km/h 82% 0.00in /  0mm 0 W/m2
00:09 63.1 °F /  17.3 °C 57.7 °F /  14.3 °C 29.86in /  1011.1hPa Calm   1mph /  1.6km/h 82.5% 0.00in /  0mm 0 W/m2
00:14 63.1 °F /  17.3 °C 57.5 °F /  14.2 °C 29.86in /  1011.1hPa WNW 0.1mph /  0.2km/h 2mph /  3.2km/h 82% 0.00in /  0mm 0 W/m2
00:19 63.1 °F /  17.3 °C 57.5 °F /  14.2 °C 29.86in /  1011.1hPa WNW 0.1mph /  0.2km/h 2mph /  3.2km/h 82% 0.00in /  0mm 0 W/m2
00:24 63 °F /  17.2 °C 57.4 °F /  14.1 °C 29.86in /  1011.1hPa Calm   2mph /  3.2km/h 82% 0.00in /  0mm 0 W/m2
00:29 63 °F /  17.2 °C 57.4 °F /  14.1 °C 29.86in /  1011.1hPa Calm   2mph /  3.2km/h 82% 0.00in /  0mm 0 W/m2
00:34 62.9 °F /  17.2 °C 57.3 °F /  14.1 °C 29.86in /  1011.1hPa Calm   2mph /  3.2km/h 82% 0.00in /  0mm 0 W/m2
00:39 62.9 °F /  17.2 °C 57.4 °F /  14.1 °C 29.86in /  1011.1hPa Calm   1mph /  1.6km/h 82.4% 0.00in /  0mm 0 W/m2
00:44 62.7 °F /  17.1 °C 57.5 °F /  14.2 °C 29.86in /  1011.1hPa Calm   1mph /  1.6km/h 83% 0.00in /  0mm 0 W/m2
00:49 62.6 °F /  17 °C 57.4 °F /  14.1 °C 29.86in /  1011.1hPa Calm   1mph /  1.6km/h 83% 0.00in /  0mm 0 W/m2
00:54 62.4 °F /  16.9 °C 57.2 °F /  14 °C 29.86in /  1011.1hPa Calm   1mph /  1.6km/h 83% 0.00in /  0mm 0 W/m2
00:59 62.3 °F /  16.8 °C 57.1 °F /  13.9 °C 29.86in /  1011.1hPa Calm   1mph /  1.6km/h 83% 0.00in /  0mm 0 W/m2
01:04 62.2 °F /  16.8 °C 56.9 °F /  13.8 °C 29.86in /  1011.1hPa Calm   1mph /  1.6km/h 83% 0.00in /  0mm 0 W/m2
01:09 62.1 °F /  16.7 °C 56.9 °F /  13.8 °C 29.85in /  1010.7hPa Calm     83% 0.00in /  0mm 0 W/m2
01:14 62 °F /  16.7 °C 57.1 °F /  13.9 °C 29.85in /  1010.7hPa Calm     84% 0.00in /  0mm 0 W/m2
01:19 61.9 °F /  16.6 °C 57 °F /  13.9 °C 29.85in /  1010.7hPa Calm   1mph /  1.6km/h 84% 0.00in /  0mm 0 W/m2
01:24 61.8 °F /  16.6 °C 56.9 °F /  13.8 °C 29.85in /  1010.7hPa Calm   1mph /  1.6km/h 84% 0.00in /  0mm 0 W/m2
01:29 61.6 °F /  16.4 °C 56.9 °F /  13.8 °C 29.85in /  1010.7hPa WNW 0.1mph /  0.2km/h 1mph /  1.6km/h 84.4% 0.00in /  0mm 0 W/m2
01:34 61.5 °F /  16.4 °C 56.9 °F /  13.8 °C 29.85in /  1010.7hPa Calm   2mph /  3.2km/h 85% 0.00in /  0mm 0 W/m2
01:39 61.3 °F /  16.3 °C 56.8 °F /  13.8 °C 29.85in /  1010.7hPa Calm   2mph /  3.2km/h 85% 0.00in /  0mm 0 W/m2
01:44 61.2 °F /  16.2 °C 56.7 °F /  13.7 °C 29.85in /  1010.7hPa Calm   2mph /  3.2km/h 85% 0.00in /  0mm 0 W/m2
01:49 61.1 °F /  16.2 °C 56.9 °F /  13.8 °C 29.85in /  1010.7hPa Calm   2mph /  3.2km/h 86% 0.00in /  0mm 0 W/m2
01:54 61.1 °F /  16.2 °C 56.9 °F /  13.8 °C 29.85in /  1010.7hPa Calm   2mph /  3.2km/h 86% 0.00in /  0mm 0 W/m2
01:59 60.9 °F /  16.1 °C 56.7 °F /  13.7 °C 29.85in /  1010.7hPa Calm   2mph /  3.2km/h 86% 0.00in /  0mm 0 W/m2
02:04 60.8 °F /  16 °C 56.6 °F /  13.7 °C 29.85in /  1010.7hPa Calm   2mph /  3.2km/h 86% 0.00in /  0mm 0 W/m2
02:09 60.7 °F /  15.9 °C 56.7 °F /  13.7 °C 29.85in /  1010.7hPa Calm     86.7% 0.00in /  0mm 0 W/m2
02:14 60.5 °F /  15.8 °C 56.6 °F /  13.7 °C 29.85in /  1010.7hPa Calm     87% 0.00in /  0mm 0 W/m2
02:19 60.4 °F /  15.8 °C 56.5 °F /  13.6 °C 29.85in /  1010.7hPa Calm     87% 0.00in /  0mm 0 W/m2
02:24 60.3 °F /  15.7 °C 56.4 °F /  13.6 °C 29.85in /  1010.7hPa Calm     87% 0.00in /  0mm 0 W/m2
02:29 60.2 °F /  15.7 °C 56.3 °F /  13.5 °C 29.85in /  1010.7hPa WNW 0.1mph /  0.2km/h 4mph /  6.4km/h 87% 0.00in /  0mm 0 W/m2
02:34 60.2 °F /  15.7 °C 56.3 °F /  13.5 °C 29.85in /  1010.7hPa Calm   4mph /  6.4km/h 87% 0.00in /  0mm 0 W/m2
02:39 60.2 °F /  15.7 °C 56.3 °F /  13.5 °C 29.86in /  1011.1hPa Calm   1mph /  1.6km/h 87% 0.00in /  0mm 0 W/m2
02:44 60.2 °F /  15.7 °C 56.3 °F /  13.5 °C 29.86in /  1011.1hPa Calm   1mph /  1.6km/h 87% 0.00in /  0mm 0 W/m2
02:49 60.3 °F /  15.7 °C 56.4 °F /  13.6 °C 29.86in /  1011.1hPa WNW 0.1mph /  0.2km/h 3mph /  4.8km/h 87% 0.00in /  0mm 0 W/m2
02:54 60.3 °F /  15.7 °C 56.4 °F /  13.6 °C 29.86in /  1011.1hPa Calm   3mph /  4.8km/h 87% 0.00in /  0mm 0 W/m2
02:59 60.4 °F /  15.8 °C 56.5 °F /  13.6 °C 29.86in /  1011.1hPa Calm   3mph /  4.8km/h 87% 0.00in /  0mm 0 W/m2
03:04 60.4 °F /  15.8 °C 56.5 °F /  13.6 °C 29.86in /  1011.1hPa Calm   3mph /  4.8km/h 87% 0.00in /  0mm 0 W/m2
03:09 60.4 °F /  15.8 °C 56.5 °F /  13.6 °C 29.86in /  1011.1hPa Calm     87% 0.00in /  0mm 0 W/m2
03:14 60.3 °F /  15.7 °C 56.4 °F /  13.6 °C 29.86in /  1011.1hPa Calm     87% 0.00in /  0mm 0 W/m2
03:19 60.2 °F /  15.7 °C 56.3 °F /  13.5 °C 29.86in /  1011.1hPa Calm     87% 0.00in /  0mm 0 W/m2
03:24 60.2 °F /  15.7 °C 56.3 °F /  13.5 °C 29.86in /  1011.1hPa Calm     87% 0.00in /  0mm 0 W/m2
03:29 60.1 °F /  15.6 °C 56.2 °F /  13.4 °C 29.86in /  1011.1hPa Calm     87% 0.00in /  0mm 0 W/m2
03:34 60 °F /  15.6 °C 56.2 °F /  13.4 °C 29.86in /  1011.1hPa Calm     87.2% 0.00in /  0mm 0 W/m2
03:39 60 °F /  15.6 °C 56.4 °F /  13.6 °C 29.86in /  1011.1hPa Calm     88% 0.00in /  0mm 0 W/m2
03:44 59.9 °F /  15.5 °C 56.3 °F /  13.5 °C 29.86in /  1011.1hPa Calm     88% 0.00in /  0mm 0 W/m2
03:49 59.8 °F /  15.4 °C 56.2 °F /  13.4 °C 29.86in /  1011.1hPa Calm   1mph /  1.6km/h 88% 0.00in /  0mm 0 W/m2
03:54 59.8 °F /  15.4 °C 56.2 °F /  13.4 °C 29.86in /  1011.1hPa Calm   1mph /  1.6km/h 88% 0.00in /  0mm 0 W/m2
03:59 59.6 °F /  15.3 °C 56.1 °F /  13.4 °C 29.86in /  1011.1hPa Calm   1mph /  1.6km/h 88% 0.00in /  0mm 0 W/m2
04:00 59.6 °F /  15.3 °C 56.1 °F /  13.4 °C 29.86in /  1011.1hPa Calm   1mph /  1.6km/h 88% 0.00in /  0mm 0 W/m2
04:09 59.4 °F /  15.2 °C 56.1 °F /  13.4 °C 29.87in /  1011.4hPa Calm     88.8% 0.00in /  0mm 0 W/m2
04:14 59.3 °F /  15.2 °C 56.1 °F /  13.4 °C 29.87in /  1011.4hPa WNW 0.2mph /  0.3km/h 3mph /  4.8km/h 89% 0.00in /  0mm 0 W/m2
04:19 59.2 °F /  15.1 °C 56 °F /  13.3 °C 29.87in /  1011.4hPa Calm   3mph /  4.8km/h 89% 0.00in /  0mm 0 W/m2
04:24 59.1 °F /  15.1 °C 55.9 °F /  13.3 °C 29.87in /  1011.4hPa Calm   3mph /  4.8km/h 89% 0.00in /  0mm 0 W/m2
04:29 59 °F /  15 °C 55.8 °F /  13.2 °C 29.87in /  1011.4hPa Calm   3mph /  4.8km/h 89% 0.00in /  0mm 0 W/m2
04:34 58.9 °F /  14.9 °C 55.7 °F /  13.2 °C 29.87in /  1011.4hPa Calm   3mph /  4.8km/h 89% 0.00in /  0mm 0 W/m2
04:39 58.8 °F /  14.9 °C 55.6 °F /  13.1 °C 29.88in /  1011.7hPa Calm     89% 0.00in /  0mm 0 W/m2
04:44 58.8 °F /  14.9 °C 55.5 °F /  13.1 °C 29.87in /  1011.4hPa Calm     89% 0.00in /  0mm 0 W/m2
04:49 58.7 °F /  14.8 °C 55.5 °F /  13.1 °C 29.87in /  1011.4hPa Calm     89% 0.00in /  0mm 0 W/m2
04:54 58.7 °F /  14.8 °C 55.4 °F /  13 °C 29.87in /  1011.4hPa Calm     89% 0.00in /  0mm 0 W/m2
04:59 58.6 °F /  14.8 °C 55.5 °F /  13.1 °C 29.87in /  1011.4hPa Calm     89.4% 0.00in /  0mm 0 W/m2
05:04 58.5 °F /  14.7 °C 55.6 °F /  13.1 °C 29.88in /  1011.7hPa Calm     90% 0.00in /  0mm 0 W/m2
05:09 58.4 °F /  14.7 °C 55.5 °F /  13.1 °C 29.88in /  1011.7hPa Calm     90% 0.00in /  0mm 0 W/m2
05:14 58.3 °F /  14.6 °C 55.4 °F /  13 °C 29.88in /  1011.7hPa Calm     90% 0.00in /  0mm 0 W/m2
05:19 58.2 °F /  14.6 °C 55.3 °F /  12.9 °C 29.88in /  1011.7hPa Calm     90% 0.00in /  0mm 0 W/m2
05:24 58.2 °F /  14.6 °C 55.3 °F /  12.9 °C 29.88in /  1011.7hPa Calm     90% 0.00in /  0mm 0 W/m2
05:29 58.1 °F /  14.5 °C 55.2 °F /  12.9 °C 29.88in /  1011.7hPa Calm     90% 0.00in /  0mm 0 W/m2
05:34 58 °F /  14.4 °C 55.1 °F /  12.8 °C 29.88in /  1011.7hPa Calm     90% 0.00in /  0mm 0 W/m2
05:39 57.9 °F /  14.4 °C 55 °F /  12.8 °C 29.88in /  1011.7hPa Calm     90% 0.00in /  0mm 0 W/m2
05:44 57.9 °F /  14.4 °C 55 °F /  12.8 °C 29.88in /  1011.7hPa Calm     90% 0.00in /  0mm 0 W/m2
05:49 57.8 °F /  14.3 °C 54.9 °F /  12.7 °C 29.88in /  1011.7hPa Calm     90% 0.00in /  0mm 0 W/m2
05:54 57.8 °F /  14.3 °C 55 °F /  12.8 °C 29.89in /  1012.1hPa Calm     90.5% 0.00in /  0mm 0 W/m2
05:59 57.8 °F /  14.3 °C 55.1 °F /  12.8 °C 29.89in /  1012.1hPa Calm     91% 0.00in /  0mm 0 W/m2
06:04 57.7 °F /  14.3 °C 54.8 °F /  12.7 °C 29.89in /  1012.1hPa Calm     90.1% 0.00in /  0mm 0 W/m2
06:09 57.6 °F /  14.2 °C 55 °F /  12.8 °C 29.89in /  1012.1hPa Calm     90.9% 0.00in /  0mm 0 W/m2
06:14 57.5 °F /  14.2 °C 54.9 °F /  12.7 °C 29.89in /  1012.1hPa Calm     91% 0.00in /  0mm 0 W/m2
06:19 57.6 °F /  14.2 °C 55 °F /  12.8 °C 29.89in /  1012.1hPa Calm     91% 0.00in /  0mm 0 W/m2
06:24 57.6 °F /  14.2 °C 55 °F /  12.8 °C 29.90in /  1012.4hPa Calm     91% 0.00in /  0mm 0 W/m2
06:29 57.6 °F /  14.2 °C 55 °F /  12.8 °C 29.90in /  1012.4hPa Calm     91% 0.00in /  0mm 0 W/m2
06:34 57.7 °F /  14.3 °C 55.1 °F /  12.8 °C 29.90in /  1012.4hPa Calm     91% 0.00in /  0mm 5 W/m2
06:39 57.7 °F /  14.3 °C 55.1 °F /  12.8 °C 29.90in /  1012.4hPa Calm     91% 0.00in /  0mm 7 W/m2
06:44 57.7 °F /  14.3 °C 55.1 °F /  12.8 °C 29.90in /  1012.4hPa Calm     91% 0.00in /  0mm 9 W/m2
06:49 57.7 °F /  14.3 °C 55.1 °F /  12.8 °C 29.90in /  1012.4hPa Calm     91% 0.00in /  0mm 11 W/m2
06:54 57.7 °F /  14.3 °C 55.1 °F /  12.8 °C 29.90in /  1012.4hPa Calm     91% 0.00in /  0mm 11 W/m2
06:59 57.8 °F /  14.3 °C 55.2 °F /  12.9 °C 29.90in /  1012.4hPa Calm     91% 0.00in /  0mm 12 W/m2
07:04 57.8 °F /  14.3 °C 55.2 °F /  12.9 °C 29.91in /  1012.8hPa Calm     91% 0.00in /  0mm 14 W/m2
07:09 57.9 °F /  14.4 °C 55.3 °F /  12.9 °C 29.91in /  1012.8hPa Calm     91% 0.00in /  0mm 16 W/m2
07:14 58 °F /  14.4 °C 55.4 °F /  13 °C 29.91in /  1012.8hPa Calm     91% 0.00in /  0mm 16 W/m2
07:19 58 °F /  14.4 °C 55.4 °F /  13 °C 29.91in /  1012.8hPa Calm     91% 0.00in /  0mm 16 W/m2
07:24 58.1 °F /  14.5 °C 55.7 °F /  13.2 °C 29.91in /  1012.8hPa Calm     91.7% 0.00in /  0mm 18 W/m2
07:29 58.2 °F /  14.6 °C 55.8 °F /  13.2 °C 29.91in /  1012.8hPa Calm     92% 0.00in /  0mm 19 W/m2
07:34 58.3 °F /  14.6 °C 56 °F /  13.3 °C 29.91in /  1012.8hPa Calm     92% 0.00in /  0mm 19 W/m2
07:39 58.4 °F /  14.7 °C 56.1 °F /  13.4 °C 29.92in /  1013.1hPa Calm     92% 0.00in /  0mm 21 W/m2
07:44 58.6 °F /  14.8 °C 56.1 °F /  13.4 °C 29.92in /  1013.1hPa Calm     91.5% 0.00in /  0mm 23 W/m2
07:49 58.7 °F /  14.8 °C 56.2 °F /  13.4 °C 29.92in /  1013.1hPa Calm     91.4% 0.00in /  0mm 25 W/m2
07:54 59 °F /  15 °C 56.4 °F /  13.6 °C 29.92in /  1013.1hPa Calm     91.1% 0.00in /  0mm 28 W/m2
07:59 59.3 °F /  15.2 °C 56.6 °F /  13.7 °C 29.92in /  1013.1hPa Calm     91% 0.00in /  0mm 32 W/m2
08:09 60.1 °F /  15.6 °C 57.1 °F /  13.9 °C 29.93in /  1013.4hPa Calm     89.7% 0.00in /  0mm 44 W/m2
08:14 60.6 °F /  15.9 °C 57.3 °F /  14.1 °C 29.93in /  1013.4hPa Calm     88.9% 0.00in /  0mm 51 W/m2
08:19 61.1 °F /  16.2 °C 57.5 °F /  14.2 °C 29.93in /  1013.4hPa Calm     87.9% 0.00in /  0mm 65 W/m2
08:24 61.6 °F /  16.4 °C 57.6 °F /  14.2 °C 29.93in /  1013.4hPa Calm     86.6% 0.00in /  0mm 98 W/m2
08:29 62.1 °F /  16.7 °C 57.8 °F /  14.3 °C 29.93in /  1013.4hPa Calm     85.8% 0.00in /  0mm 192 W/m2
08:33 62.5 °F /  16.9 °C 58 °F /  14.4 °C 29.93in /  1013.4hPa Calm     85% 0.00in /  0mm 360 W/m2
09:00 68.6 °F /  20.3 °C 60.4 °F /  15.8 °C 29.93in /  1013.4hPa Calm   1mph /  1.6km/h 75% 0.00in /  0mm 422 W/m2
09:30 74.5 °F /  23.6 °C 63.7 °F /  17.6 °C 29.93in /  1013.4hPa Calm   5mph /  8km/h 69% 0.00in /  0mm 522 W/m2
10:00 77.4 °F /  25.2 °C 62.4 °F /  16.9 °C 29.93in /  1013.4hPa Calm   4mph /  6.4km/h 60% 0.00in /  0mm 608 W/m2
10:30 79 °F /  26.1 °C 63 °F /  17.2 °C 29.94in /  1013.8hPa West 1mph /  1.6km/h 7mph /  11.3km/h 58% 0.00in /  0mm 681 W/m2
11:00 80.5 °F /  26.9 °C 61.8 °F /  16.6 °C 29.94in /  1013.8hPa WSW 1mph /  1.6km/h 11mph /  17.7km/h 53% 0.00in /  0mm 742 W/m2
11:30 77.8 °F /  25.4 °C 60.9 °F /  16.1 °C 29.93in /  1013.4hPa West 3mph /  4.8km/h 13mph /  20.9km/h 56% 0.00in /  0mm 552 W/m2
12:04 77.8 °F /  25.4 °C 60.3 °F /  15.7 °C 29.92in /  1013.1hPa NW 2.1mph /  3.4km/h 5mph /  8km/h 55% 0.00in /  0mm 121 W/m2
12:09 77.4 °F /  25.2 °C 60.6 °F /  15.9 °C 29.92in /  1013.1hPa WNW 1.9mph /  3.1km/h 7mph /  11.3km/h 56.2% 0.00in /  0mm 165 W/m2
12:14 76.9 °F /  24.9 °C 60.4 °F /  15.8 °C 29.92in /  1013.1hPa WSW 1.9mph /  3.1km/h 7mph /  11.3km/h 56.9% 0.00in /  0mm 206 W/m2
12:19 76.7 °F /  24.8 °C 60.8 °F /  16 °C 29.92in /  1013.1hPa West 2mph /  3.2km/h 7mph /  11.3km/h 57.9% 0.00in /  0mm 262 W/m2
12:24 76.8 °F /  24.9 °C 61 °F /  16.1 °C 29.92in /  1013.1hPa WSW 0.9mph /  1.4km/h 7mph /  11.3km/h 58.1% 0.00in /  0mm 288 W/m2
12:29 77.1 °F /  25.1 °C 61.7 °F /  16.5 °C 29.92in /  1013.1hPa WNW 1.8mph /  2.9km/h 7mph /  11.3km/h 59% 0.00in /  0mm 211 W/m2
12:34 77.4 °F /  25.2 °C 61.6 °F /  16.4 °C 29.92in /  1013.1hPa NNW 2.1mph /  3.4km/h 7mph /  11.3km/h 58.3% 0.00in /  0mm 163 W/m2
12:39 77.5 °F /  25.3 °C 60.9 °F /  16.1 °C 29.92in /  1013.1hPa NW 3.6mph /  5.8km/h 7mph /  11.3km/h 56.8% 0.00in /  0mm 264 W/m2
12:44 77.4 °F /  25.2 °C 61.5 °F /  16.4 °C 29.92in /  1013.1hPa NW 2.1mph /  3.4km/h 7mph /  11.3km/h 58.1% 0.00in /  0mm 272 W/m2
12:49 77.4 °F /  25.2 °C 61.3 °F /  16.3 °C 29.92in /  1013.1hPa NNW 1.3mph /  2.1km/h 7mph /  11.3km/h 57.7% 0.00in /  0mm 390 W/m2
12:54 77.2 °F /  25.1 °C 60.9 °F /  16.1 °C 29.92in /  1013.1hPa NW 2.3mph /  3.7km/h 8mph /  12.9km/h 57.3% 0.00in /  0mm 390 W/m2
12:59 76.7 °F /  24.8 °C 60.3 °F /  15.7 °C 29.92in /  1013.1hPa WNW 1.5mph /  2.4km/h 8mph /  12.9km/h 56.9% 0.00in /  0mm 292 W/m2
13:04 76.6 °F /  24.8 °C 60.8 °F /  16 °C 29.92in /  1013.1hPa NW 1.3mph /  2.1km/h 8mph /  12.9km/h 58.1% 0.00in /  0mm 225 W/m2
13:09 76.8 °F /  24.9 °C 61.8 °F /  16.6 °C 29.92in /  1013.1hPa NW 0.3mph /  0.5km/h 6mph /  9.7km/h 59.8% 0.00in /  0mm 192 W/m2
13:14 76.8 °F /  24.9 °C 60 °F /  15.6 °C 29.92in /  1013.1hPa NW 1.7mph /  2.7km/h 6mph /  9.7km/h 56.3% 0.00in /  0mm 155 W/m2
13:19 76.4 °F /  24.7 °C 60 °F /  15.6 °C 29.92in /  1013.1hPa WNW 0.7mph /  1.1km/h 6mph /  9.7km/h 56.9% 0.00in /  0mm 142 W/m2
13:24 76.4 °F /  24.7 °C 60.6 °F /  15.9 °C 29.91in /  1012.8hPa WNW 0.9mph /  1.4km/h 6mph /  9.7km/h 58.1% 0.00in /  0mm 221 W/m2
13:29 76.8 °F /  24.9 °C 61.2 °F /  16.2 °C 29.92in /  1013.1hPa WNW 0.6mph /  1km/h 6mph /  9.7km/h 58.6% 0.00in /  0mm 264 W/m2
13:34 77.3 °F /  25.2 °C 61.1 °F /  16.2 °C 29.92in /  1013.1hPa West 3.5mph /  5.6km/h 11mph /  17.7km/h 57.3% 0.00in /  0mm 269 W/m2
13:39 77.5 °F /  25.3 °C 60.6 °F /  15.9 °C 29.92in /  1013.1hPa WNW 3.3mph /  5.3km/h 11mph /  17.7km/h 56% 0.00in /  0mm 369 W/m2
13:44 77.3 °F /  25.2 °C 60.7 °F /  15.9 °C 29.92in /  1013.1hPa WNW 2.3mph /  3.7km/h 11mph /  17.7km/h 56.5% 0.00in /  0mm 276 W/m2
13:49 77.1 °F /  25.1 °C 60.6 °F /  15.9 °C 29.92in /  1013.1hPa WNW 1.8mph /  2.9km/h 11mph /  17.7km/h 56.7% 0.00in /  0mm 232 W/m2
13:54 77.2 °F /  25.1 °C 60.7 °F /  15.9 °C 29.91in /  1012.8hPa West 0.7mph /  1.1km/h 11mph /  17.7km/h 56.9% 0.00in /  0mm 274 W/m2
13:59 77.4 °F /  25.2 °C 60.9 °F /  16.1 °C 29.91in /  1012.8hPa West 0.6mph /  1km/h 11mph /  17.7km/h 56.8% 0.00in /  0mm 155 W/m2
14:04 77.5 °F /  25.3 °C 60.4 °F /  15.8 °C 29.91in /  1012.8hPa West 1.3mph /  2.1km/h 11mph /  17.7km/h 55.6% 0.00in /  0mm 202 W/m2
14:09 77.5 °F /  25.3 °C 60.6 °F /  15.9 °C 29.91in /  1012.8hPa West 0.9mph /  1.4km/h 6mph /  9.7km/h 56% 0.00in /  0mm 158 W/m2
14:14 77.8 °F /  25.4 °C 60.3 °F /  15.7 °C 29.91in /  1012.8hPa West 0.5mph /  0.8km/h 6mph /  9.7km/h 55% 0.00in /  0mm 849 W/m2
14:19 78.1 °F /  25.6 °C 59.9 °F /  15.5 °C 29.91in /  1012.8hPa SW 1.4mph /  2.3km/h 10mph /  16.1km/h 53.4% 0.00in /  0mm 877 W/m2
14:24 78.5 °F /  25.8 °C 60.2 °F /  15.7 °C 29.91in /  1012.8hPa West 1.5mph /  2.4km/h 10mph /  16.1km/h 53.5% 0.00in /  0mm 900 W/m2
14:29 78.9 °F /  26.1 °C 59.9 °F /  15.5 °C 29.91in /  1012.8hPa WNW 2.8mph /  4.5km/h 10mph /  16.1km/h 52.3% 0.00in /  0mm 886 W/m2
14:34 79 °F /  26.1 °C 60 °F /  15.6 °C 29.90in /  1012.4hPa NW 2mph /  3.2km/h 10mph /  16.1km/h 52.2% 0.00in /  0mm 826 W/m2
14:39 79.3 °F /  26.3 °C 60.7 °F /  15.9 °C 29.90in /  1012.4hPa NW 1mph /  1.6km/h 5mph /  8km/h 53% 0.00in /  0mm 807 W/m2
14:44 79.8 °F /  26.6 °C 61.1 °F /  16.2 °C 29.90in /  1012.4hPa NW 1.7mph /  2.7km/h 5mph /  8km/h 52.9% 0.00in /  0mm 805 W/m2
14:49 80.3 °F /  26.8 °C 60.8 °F /  16 °C 29.90in /  1012.4hPa West 2.3mph /  3.7km/h 6mph /  9.7km/h 51.4% 0.00in /  0mm 793 W/m2
14:54 80.6 °F /  27 °C 60.6 °F /  15.9 °C 29.90in /  1012.4hPa West 2mph /  3.2km/h 6mph /  9.7km/h 50.7% 0.00in /  0mm 782 W/m2
14:59 80.7 °F /  27.1 °C 60.6 °F /  15.9 °C 29.90in /  1012.4hPa WSW 1.6mph /  2.6km/h 6mph /  9.7km/h 50.5% 0.00in /  0mm 772 W/m2
15:04 80.9 °F /  27.2 °C 60.4 °F /  15.8 °C 29.90in /  1012.4hPa West 1.7mph /  2.7km/h 6mph /  9.7km/h 49.7% 0.00in /  0mm 763 W/m2
15:09 81.1 °F /  27.3 °C 60.5 °F /  15.8 °C 29.90in /  1012.4hPa West 1mph /  1.6km/h 5mph /  8km/h 49.6% 0.00in /  0mm 759 W/m2
15:14 81.3 °F /  27.4 °C 60 °F /  15.6 °C 29.90in /  1012.4hPa WSW 0.7mph /  1.1km/h 5mph /  8km/h 48.5% 0.00in /  0mm 759 W/m2
15:19 81.1 °F /  27.3 °C 60.4 °F /  15.8 °C 29.90in /  1012.4hPa WSW 0.1mph /  0.2km/h 5mph /  8km/h 49.4% 0.00in /  0mm 768 W/m2
15:24 80.4 °F /  26.9 °C 59.8 °F /  15.4 °C 29.89in /  1012.1hPa Calm   5mph /  8km/h 49.6% 0.00in /  0mm 761 W/m2
15:29 80.1 °F /  26.7 °C 59.8 °F /  15.4 °C 29.89in /  1012.1hPa Calm   5mph /  8km/h 50% 0.00in /  0mm 752 W/m2
15:34 80.3 °F /  26.8 °C 60.3 °F /  15.7 °C 29.89in /  1012.1hPa WSW 0.6mph /  1km/h 5mph /  8km/h 50.5% 0.00in /  0mm 738 W/m2
15:39 80.7 °F /  27.1 °C 60.3 °F /  15.7 °C 29.89in /  1012.1hPa WSW 0.5mph /  0.8km/h 3mph /  4.8km/h 50% 0.00in /  0mm 701 W/m2
15:44 81.1 °F /  27.3 °C 60.5 °F /  15.8 °C 29.89in /  1012.1hPa WSW 1.2mph /  1.9km/h 3mph /  4.8km/h 49.6% 0.00in /  0mm 691 W/m2
15:49 81.2 °F /  27.3 °C 60 °F /  15.6 °C 29.89in /  1012.1hPa WSW 1.2mph /  1.9km/h 5mph /  8km/h 48.6% 0.00in /  0mm 668 W/m2
15:54 81 °F /  27.2 °C 59.8 °F /  15.4 °C 29.89in /  1012.1hPa West 0.5mph /  0.8km/h 5mph /  8km/h 48.5% 0.00in /  0mm 679 W/m2
15:59 80.5 °F /  26.9 °C 59.6 °F /  15.3 °C 29.89in /  1012.1hPa West 0.2mph /  0.3km/h 5mph /  8km/h 49.1% 0.00in /  0mm 677 W/m2
16:09 79.5 °F /  26.4 °C 60.3 °F /  15.7 °C 29.88in /  1011.7hPa West 0.8mph /  1.3km/h 4mph /  6.4km/h 51.9% 0.00in /  0mm 98 W/m2
16:14 79.4 °F /  26.3 °C 60.5 °F /  15.8 °C 29.88in /  1011.7hPa West 1.2mph /  1.9km/h 5mph /  8km/h 52.4% 0.00in /  0mm 69 W/m2
16:19 79.4 °F /  26.3 °C 60.6 °F /  15.9 °C 29.88in /  1011.7hPa West 1mph /  1.6km/h 5mph /  8km/h 52.6% 0.00in /  0mm 63 W/m2
16:24 79.4 °F /  26.3 °C 60.8 °F /  16 °C 29.88in /  1011.7hPa West 0.7mph /  1.1km/h 5mph /  8km/h 52.9% 0.00in /  0mm 44 W/m2
16:29 79.4 °F /  26.3 °C 61 °F /  16.1 °C 29.88in /  1011.7hPa West 0.3mph /  0.5km/h 5mph /  8km/h 53.4% 0.00in /  0mm 69 W/m2
16:34 79.1 °F /  26.2 °C 60.9 °F /  16.1 °C 29.89in /  1012.1hPa West 0.2mph /  0.3km/h 5mph /  8km/h 53.8% 0.00in /  0mm 100 W/m2
16:39 78.8 °F /  26 °C 60.7 °F /  15.9 °C 29.89in /  1012.1hPa West 0.7mph /  1.1km/h 3mph /  4.8km/h 53.8% 0.00in /  0mm 107 W/m2
16:44 78.7 °F /  25.9 °C 60.8 °F /  16 °C 29.88in /  1011.7hPa West 0.6mph /  1km/h 4mph /  6.4km/h 54.2% 0.00in /  0mm 79 W/m2
16:49 78.8 °F /  26 °C 60.3 °F /  15.7 °C 29.88in /  1011.7hPa WSW 0.8mph /  1.3km/h 4mph /  6.4km/h 53.2% 0.00in /  0mm 54 W/m2
16:54 78.6 °F /  25.9 °C 60.1 °F /  15.6 °C 29.88in /  1011.7hPa WSW 0.1mph /  0.2km/h 4mph /  6.4km/h 53% 0.00in /  0mm 42 W/m2
16:59 78.4 °F /  25.8 °C 60.7 °F /  15.9 °C 29.88in /  1011.7hPa Calm   4mph /  6.4km/h 54.8% 0.00in /  0mm 44 W/m2
17:04 78.2 °F /  25.7 °C 61.1 °F /  16.2 °C 29.88in /  1011.7hPa Calm   4mph /  6.4km/h 55.7% 0.00in /  0mm 40 W/m2
17:09 78.1 °F /  25.6 °C 60.7 °F /  15.9 °C 29.88in /  1011.7hPa Calm   2mph /  3.2km/h 55.2% 0.00in /  0mm 54 W/m2
17:13 78 °F /  25.6 °C 60.5 °F /  15.8 °C 29.88in /  1011.7hPa WSW 1.1mph /  1.8km/h 4mph /  6.4km/h 54.8% 0.00in /  0mm 56 W/m2
17:19 77.9 °F /  25.5 °C 60.2 °F /  15.7 °C 29.88in /  1011.7hPa WSW 0.2mph /  0.3km/h 4mph /  6.4km/h 54.5% 0.00in /  0mm 63 W/m2
17:24 77.9 °F /  25.5 °C 60.3 °F /  15.7 °C 29.88in /  1011.7hPa WSW 0.4mph /  0.6km/h 4mph /  6.4km/h 54.7% 0.00in /  0mm 62 W/m2
17:29 77.9 °F /  25.5 °C 60.9 °F /  16.1 °C 29.88in /  1011.7hPa WSW 0.1mph /  0.2km/h 4mph /  6.4km/h 55.9% 0.00in /  0mm 49 W/m2
17:34 77.9 °F /  25.5 °C 60.9 °F /  16.1 °C 29.88in /  1011.7hPa WSW 0.3mph /  0.5km/h 5mph /  8km/h 55.9% 0.00in /  0mm 39 W/m2
17:39 77.9 °F /  25.5 °C 61 °F /  16.1 °C 29.88in /  1011.7hPa WSW 0.8mph /  1.3km/h 5mph /  8km/h 56% 0.00in /  0mm 35 W/m2
17:44 77.9 °F /  25.5 °C 60.7 °F /  15.9 °C 29.88in /  1011.7hPa WSW 0.2mph /  0.3km/h 5mph /  8km/h 55.6% 0.00in /  0mm 28 W/m2
17:49 77.8 °F /  25.4 °C 60.3 °F /  15.7 °C 29.88in /  1011.7hPa Calm   5mph /  8km/h 55% 0.00in /  0mm 33 W/m2
17:54 77.6 °F /  25.3 °C 60.7 °F /  15.9 °C 29.89in /  1012.1hPa Calm   5mph /  8km/h 56.1% 0.00in /  0mm 37 W/m2
17:59 77.5 °F /  25.3 °C 60.9 °F /  16.1 °C 29.89in /  1012.1hPa WSW 0.5mph /  0.8km/h 5mph /  8km/h 56.5% 0.00in /  0mm 39 W/m2
18:04 77.4 °F /  25.2 °C 60.8 °F /  16 °C 29.89in /  1012.1hPa Calm   5mph /  8km/h 56.6% 0.00in /  0mm 39 W/m2
18:09 77.2 °F /  25.1 °C 60.3 °F /  15.7 °C 29.89in /  1012.1hPa WSW 0.3mph /  0.5km/h 4mph /  6.4km/h 56% 0.00in /  0mm 28 W/m2
18:14 77 °F /  25 °C 60.4 °F /  15.8 °C 29.89in /  1012.1hPa Calm   4mph /  6.4km/h 56.6% 0.00in /  0mm 23 W/m2
18:19 76.9 °F /  24.9 °C 60.9 °F /  16.1 °C 29.89in /  1012.1hPa Calm   4mph /  6.4km/h 57.7% 0.00in /  0mm 19 W/m2
18:24 76.7 °F /  24.8 °C 61 °F /  16.1 °C 29.89in /  1012.1hPa Calm   4mph /  6.4km/h 58.3% 0.00in /  0mm 18 W/m2
18:29 76.6 °F /  24.8 °C 61.4 °F /  16.3 °C 29.89in /  1012.1hPa Calm   4mph /  6.4km/h 59.4% 0.00in /  0mm 16 W/m2
18:34 76.4 °F /  24.7 °C 61.1 °F /  16.2 °C 29.88in /  1011.7hPa Calm   4mph /  6.4km/h 59.2% 0.00in /  0mm 14 W/m2
18:39 76.2 °F /  24.6 °C 60.8 °F /  16 °C 29.88in /  1011.7hPa Calm     59% 0.00in /  0mm 14 W/m2
18:44 76 °F /  24.4 °C 61.1 °F /  16.2 °C 29.88in /  1011.7hPa Calm     59.9% 0.00in /  0mm 12 W/m2
18:49 75.8 °F /  24.3 °C 61 °F /  16.1 °C 29.88in /  1011.7hPa Calm     60.2% 0.00in /  0mm 11 W/m2
18:54 75.6 °F /  24.2 °C 61.2 °F /  16.2 °C 29.88in /  1011.7hPa Calm     61% 0.00in /  0mm 9 W/m2
18:59 75.3 °F /  24.1 °C 61 °F /  16.1 °C 29.89in /  1012.1hPa Calm     61% 0.00in /  0mm 7 W/m2
19:04 75 °F /  23.9 °C 60.7 °F /  15.9 °C 29.88in /  1011.7hPa Calm     61% 0.00in /  0mm 5 W/m2
19:09 74.8 °F /  23.8 °C 60.9 °F /  16.1 °C 29.89in /  1012.1hPa Calm     61.9% 0.00in /  0mm 0 W/m2
19:14 74.5 °F /  23.6 °C 60.6 °F /  15.9 °C 29.89in /  1012.1hPa Calm     62.1% 0.00in /  0mm 0 W/m2
19:19 74.1 °F /  23.4 °C 60.7 °F /  15.9 °C 29.89in /  1012.1hPa Calm     63% 0.00in /  0mm 0 W/m2
19:24 73.8 °F /  23.2 °C 60.4 °F /  15.8 °C 29.89in /  1012.1hPa Calm     63% 0.00in /  0mm 0 W/m2
19:29 73.4 °F /  23 °C 60.5 °F /  15.8 °C 29.89in /  1012.1hPa Calm     64% 0.00in /  0mm 0 W/m2
19:34 73.1 °F /  22.8 °C 60.6 °F /  15.9 °C 29.89in /  1012.1hPa Calm     64.8% 0.00in /  0mm 0 W/m2
19:39 72.7 °F /  22.6 °C 60.7 °F /  15.9 °C 29.89in /  1012.1hPa Calm     65.8% 0.00in /  0mm 0 W/m2
19:44 72.4 °F /  22.4 °C 60.8 °F /  16 °C 29.89in /  1012.1hPa Calm     66.8% 0.00in /  0mm 0 W/m2
19:49 72.1 °F /  22.3 °C 60.5 °F /  15.8 °C 29.89in /  1012.1hPa Calm     67% 0.00in /  0mm 0 W/m2
19:54 71.8 °F /  22.1 °C 60.6 °F /  15.9 °C 29.89in /  1012.1hPa Calm     68% 0.00in /  0mm 0 W/m2
19:59 71.5 °F /  21.9 °C 60.8 °F /  16 °C 29.89in /  1012.1hPa Calm     69% 0.00in /  0mm 0 W/m2
20:09 70.8 °F /  21.6 °C 60.5 °F /  15.8 °C 29.90in /  1012.4hPa Calm     70% 0.00in /  0mm 0 W/m2
20:14 70.5 °F /  21.4 °C 60.4 °F /  15.8 °C 29.90in /  1012.4hPa Calm     70.3% 0.00in /  0mm 0 W/m2
20:19 70.2 °F /  21.2 °C 60.4 °F /  15.8 °C 29.90in /  1012.4hPa Calm     71% 0.00in /  0mm 0 W/m2
20:24 69.9 °F /  21.1 °C 60.3 °F /  15.7 °C 29.90in /  1012.4hPa Calm     71.4% 0.00in /  0mm 0 W/m2
20:29 69.7 °F /  20.9 °C 60.4 °F /  15.8 °C 29.91in /  1012.8hPa Calm     72.2% 0.00in /  0mm 0 W/m2
20:34 69.5 °F /  20.8 °C 60.5 °F /  15.8 °C 29.91in /  1012.8hPa Calm     73% 0.00in /  0mm 0 W/m2
20:39 69.3 °F /  20.7 °C 60.4 °F /  15.8 °C 29.91in /  1012.8hPa Calm     73.4% 0.00in /  0mm 0 W/m2
20:44 69.1 °F /  20.6 °C 60.7 °F /  15.9 °C 29.91in /  1012.8hPa Calm     74.8% 0.00in /  0mm 0 W/m2
20:49 68.8 °F /  20.4 °C 60.9 °F /  16.1 °C 29.91in /  1012.8hPa Calm     76% 0.00in /  0mm 0 W/m2
20:54 68.5 °F /  20.3 °C 60.8 °F /  16 °C 29.91in /  1012.8hPa Calm     76.6% 0.00in /  0mm 0 W/m2
20:59 68.2 °F /  20.1 °C 60.8 °F /  16 °C 29.92in /  1013.1hPa Calm     77.1% 0.00in /  0mm 0 W/m2
21:04 68 °F /  20 °C 60.9 °F /  16.1 °C 29.92in /  1013.1hPa Calm     78% 0.00in /  0mm 0 W/m2
21:09 67.7 °F /  19.8 °C 60.9 °F /  16.1 °C 29.91in /  1012.8hPa Calm     78.7% 0.00in /  0mm 0 W/m2
21:14 67.6 °F /  19.8 °C 60.8 °F /  16 °C 29.91in /  1012.8hPa Calm     79% 0.00in /  0mm 0 W/m2
21:19 67.4 °F /  19.7 °C 60.7 °F /  15.9 °C 29.91in /  1012.8hPa Calm     79% 0.00in /  0mm 0 W/m2
21:24 67.3 °F /  19.6 °C 60.8 °F /  16 °C 29.91in /  1012.8hPa Calm     79.6% 0.00in /  0mm 0 W/m2
21:29 67.1 °F /  19.5 °C 60.8 °F /  16 °C 29.91in /  1012.8hPa Calm     80.3% 0.00in /  0mm 0 W/m2
21:34 66.9 °F /  19.4 °C 60.8 °F /  16 °C 29.91in /  1012.8hPa Calm     80.9% 0.00in /  0mm 0 W/m2
21:39 66.7 °F /  19.3 °C 60.7 °F /  15.9 °C 29.92in /  1013.1hPa Calm     81% 0.00in /  0mm 0 W/m2
21:44 66.6 °F /  19.2 °C 60.8 °F /  16 °C 29.92in /  1013.1hPa Calm     81.5% 0.00in /  0mm 0 W/m2
21:49 66.5 °F /  19.2 °C 60.8 °F /  16 °C 29.92in /  1013.1hPa Calm     82% 0.00in /  0mm 0 W/m2
21:54 66.5 °F /  19.2 °C 60.8 °F /  16 °C 29.92in /  1013.1hPa Calm     82% 0.00in /  0mm 0 W/m2
21:59 66.5 °F /  19.2 °C 60.8 °F /  16 °C 29.92in /  1013.1hPa Calm     82% 0.00in /  0mm 0 W/m2
22:04 66.4 °F /  19.1 °C 60.7 °F /  15.9 °C 29.92in /  1013.1hPa Calm     82% 0.00in /  0mm 0 W/m2
22:09 66.3 °F /  19.1 °C 60.8 °F /  16 °C 29.92in /  1013.1hPa Calm     82.6% 0.00in /  0mm 0 W/m2
22:14 66.2 °F /  19 °C 60.9 °F /  16.1 °C 29.92in /  1013.1hPa Calm     83% 0.00in /  0mm 0 W/m2
22:19 66.1 °F /  18.9 °C 60.8 °F /  16 °C 29.92in /  1013.1hPa Calm     83% 0.00in /  0mm 0 W/m2
22:24 66 °F /  18.9 °C 60.7 °F /  15.9 °C 29.92in /  1013.1hPa Calm     83% 0.00in /  0mm 0 W/m2
22:29 65.9 °F /  18.8 °C 60.6 °F /  15.9 °C 29.92in /  1013.1hPa Calm     83% 0.00in /  0mm 0 W/m2
22:34 65.7 °F /  18.7 °C 60.5 °F /  15.8 °C 29.92in /  1013.1hPa Calm     83.3% 0.00in /  0mm 0 W/m2
22:39 65.6 °F /  18.7 °C 60.6 °F /  15.9 °C 29.91in /  1012.8hPa Calm     84% 0.00in /  0mm 0 W/m2
22:44 65.4 °F /  18.6 °C 60.5 °F /  15.8 °C 29.92in /  1013.1hPa Calm     84% 0.00in /  0mm 0 W/m2
22:49 65.3 °F /  18.5 °C 60.4 °F /  15.8 °C 29.92in /  1013.1hPa Calm     84.1% 0.00in /  0mm 0 W/m2
22:54 65.2 °F /  18.4 °C 60.5 °F /  15.8 °C 29.92in /  1013.1hPa Calm     84.7% 0.00in /  0mm 0 W/m2
22:59 65 °F /  18.3 °C 60.4 °F /  15.8 °C 29.92in /  1013.1hPa Calm     85% 0.00in /  0mm 0 W/m2
23:04 64.9 °F /  18.3 °C 60.3 °F /  15.7 °C 29.92in /  1013.1hPa Calm     85% 0.00in /  0mm 0 W/m2
23:09 64.9 °F /  18.3 °C 60.6 °F /  15.9 °C 29.91in /  1012.8hPa Calm     86% 0.00in /  0mm 0 W/m2
23:14 64.8 °F /  18.2 °C 60.5 °F /  15.8 °C 29.91in /  1012.8hPa Calm     86% 0.00in /  0mm 0 W/m2
23:19 64.7 °F /  18.2 °C 60.5 °F /  15.8 °C 29.91in /  1012.8hPa Calm     86% 0.00in /  0mm 0 W/m2
23:24 64.6 °F /  18.1 °C 60.4 °F /  15.8 °C 29.91in /  1012.8hPa Calm     86% 0.00in /  0mm 0 W/m2
23:29 64.5 °F /  18.1 °C 60.3 °F /  15.7 °C 29.91in /  1012.8hPa Calm     86% 0.00in /  0mm 0 W/m2
23:34 64.4 °F /  18 °C 60.1 °F /  15.6 °C 29.91in /  1012.8hPa Calm     86% 0.00in /  0mm 0 W/m2
23:39 64.2 °F /  17.9 °C 59.9 °F /  15.5 °C 29.90in /  1012.4hPa Calm     86% 0.00in /  0mm 0 W/m2
23:44 64 °F /  17.8 °C 60 °F /  15.6 °C 29.91in /  1012.8hPa Calm     86.8% 0.00in /  0mm 0 W/m2
23:49 63.8 °F /  17.7 °C 59.9 °F /  15.5 °C 29.90in /  1012.4hPa Calm     87% 0.00in /  0mm 0 W/m2
23:54 63.7 °F /  17.6 °C 60.1 °F /  15.6 °C 29.90in /  1012.4hPa Calm     87.9% 0.00in /  0mm 0 W/m2
23:59 63.6 °F /  17.6 °C 60 °F /  15.6 °C 29.90in /  1012.4hPa Calm     88% 0.00in /  0mm 0 W/m2
Hartford County Weather
Compliments of Weather Underground - 2 mb